Time;durP1;ratioP1;P1;durP2;ratioP2;P2;SDS_P1;SDS_P2;PMS_P1;PMS_P2;Temp;Humidity;BMP_temperature;BMP_pressure;BME280_temperature;BME280_humidity;BME280_pressure;Samples;Min_cycle;Max_cycle;Signal;HPM_P1;HPM_P2
2022/08/22 00:01:01;;;;;;;8.60;3.42;;;17.20;99.90;;;;;;5052357;28;20032;-65
2022/08/22 00:04:13;;;;;;;8.32;3.05;;;17.10;99.90;;;;;;5052480;28;20063;-65
2022/08/22 00:07:11;;;;;;;7.15;3.22;;;17.10;99.90;;;;;;5074599;28;20040;-66
2022/08/22 00:10:01;;;;;;;6.45;2.95;;;17.10;99.90;;;;;;5074561;28;20051;-65
2022/08/22 00:12:44;;;;;;;6.40;2.92;;;17.00;99.90;;;;;;5074201;28;20071;-65
2022/08/22 00:15:24;;;;;;;8.32;3.60;;;17.00;99.90;;;;;;5074306;28;20045;-66
2022/08/22 00:17:57;;;;;;;8.80;3.30;;;16.90;99.90;;;;;;5074334;28;20036;-65
2022/08/22 00:20:33;;;;;;;9.55;3.20;;;17.00;99.90;;;;;;5074320;28;20095;-66
2022/08/22 00:23:21;;;;;;;7.18;3.30;;;16.90;99.90;;;;;;5073990;28;20505;-65
2022/08/22 00:26:03;;;;;;;7.57;3.47;;;16.80;99.90;;;;;;5074219;28;20093;-65
2022/08/22 00:28:47;;;;;;;6.43;3.20;;;16.80;99.90;;;;;;5074170;28;20115;-65
2022/08/22 00:31:15;;;;;;;7.72;3.35;;;16.80;99.90;;;;;;5074103;28;20036;-66
2022/08/22 00:34:11;;;;;;;7.22;3.25;;;16.90;99.90;;;;;;5074051;28;20040;-65
2022/08/22 00:37:08;;;;;;;5.32;2.78;;;16.90;99.90;;;;;;5074022;28;20044;-65
2022/08/22 00:39:53;;;;;;;6.15;2.50;;;17.00;99.90;;;;;;5051767;28;20531;-65
2022/08/22 00:42:51;;;;;;;8.75;3.00;;;17.00;99.90;;;;;;5051740;28;20590;-65
2022/08/22 00:45:38;;;;;;;7.78;3.47;;;17.00;99.90;;;;;;5051864;28;20052;-66
2022/08/22 00:48:29;;;;;;;7.50;2.85;;;17.00;99.90;;;;;;5051545;28;20123;-65
2022/08/22 00:51:28;;;;;;;6.22;3.28;;;17.00;99.90;;;;;;5051654;28;20049;-65
2022/08/22 00:54:03;;;;;;;8.38;3.40;;;17.00;99.90;;;;;;5051626;28;20567;-64
2022/08/22 00:56:55;;;;;;;7.82;3.30;;;16.90;99.90;;;;;;5051453;28;20087;-64
2022/08/22 00:59:38;;;;;;;12.23;3.03;;;17.00;99.90;;;;;;5051932;28;20033;-65
2022/08/22 01:02:28;;;;;;;6.70;3.00;;;17.00;99.90;;;;;;5051370;28;20041;-65
2022/08/22 01:05:26;;;;;;;5.70;3.03;;;17.00;99.90;;;;;;5051451;28;20132;-66
2022/08/22 01:08:11;;;;;;;8.02;4.10;;;17.00;99.90;;;;;;5051129;28;20040;-65
2022/08/22 01:10:57;;;;;;;9.88;3.13;;;17.00;99.90;;;;;;5051265;28;20053;-64
2022/08/22 01:13:34;;;;;;;11.32;3.25;;;17.10;99.90;;;;;;5051280;28;20146;-65
2022/08/22 01:16:12;;;;;;;7.75;3.50;;;17.00;99.90;;;;;;5058434;28;20052;-65
2022/08/22 01:19:12;;;;;;;10.25;3.67;;;16.90;99.90;;;;;;5073595;28;20044;-65
2022/08/22 01:22:08;;;;;;;7.78;3.47;;;17.00;99.90;;;;;;5051373;28;20108;-65
2022/08/22 01:25:16;;;;;;;8.13;3.13;;;17.00;99.90;;;;;;5034700;28;20080;-65
2022/08/22 01:28:06;;;;;;;8.00;3.42;;;17.00;99.90;;;;;;5051254;28;20550;-65
2022/08/22 01:31:16;;;;;;;8.82;3.20;;;16.90;99.90;;;;;;5051700;28;20084;-66
2022/08/22 01:33:44;;;;;;;7.88;3.72;;;16.90;99.90;;;;;;4953069;29;20098;-65
2022/08/22 01:36:35;;;;;;;9.57;3.30;;;16.90;99.90;;;;;;4953232;29;20047;-65
2022/08/22 01:39:33;;;;;;;8.68;3.35;;;16.90;99.90;;;;;;4953179;29;20546;-65
2022/08/22 01:42:31;;;;;;;7.95;3.35;;;16.90;99.90;;;;;;4953361;29;20071;-64
2022/08/22 01:45:13;;;;;;;9.38;3.83;;;16.90;99.90;;;;;;4953141;28;20134;-65
2022/08/22 01:47:41;;;;;;;7.65;3.53;;;16.90;99.90;;;;;;4953278;29;20043;-65
2022/08/22 01:50:35;;;;;;;6.57;3.65;;;16.90;99.90;;;;;;4952889;29;20137;-65
2022/08/22 01:53:31;;;;;;;4.57;3.10;;;16.90;99.90;;;;;;4953648;29;20048;-65
2022/08/22 01:56:03;;;;;;;8.38;3.38;;;16.80;99.90;;;;;;4914953;29;20056;-64
2022/08/22 01:58:33;;;;;;;7.70;4.00;;;16.80;99.90;;;;;;4924158;29;20047;-64
2022/08/22 02:01:23;;;;;;;10.38;4.20;;;16.80;99.90;;;;;;4933987;29;20047;-65
2022/08/22 02:04:14;;;;;;;8.65;4.28;;;16.80;99.90;;;;;;4934022;29;20087;-65
2022/08/22 02:06:46;;;;;;;8.23;3.72;;;16.80;99.90;;;;;;4933910;29;20551;-64
2022/08/22 02:09:32;;;;;;;5.97;3.78;;;16.80;99.90;;;;;;4960410;28;20057;-65
2022/08/22 02:12:10;;;;;;;9.88;4.47;;;16.80;99.90;;;;;;4991746;28;20054;-65
2022/08/22 02:15:13;;;;;;;7.30;3.70;;;16.80;99.90;;;;;;4991665;28;20059;-65
2022/08/22 02:18:02;;;;;;;4.72;3.72;;;16.70;99.90;;;;;;4991616;28;20469;-64
2022/08/22 02:20:39;;;;;;;6.70;3.53;;;16.60;99.90;;;;;;4993606;28;20051;-65
2022/08/22 02:23:23;;;;;;;5.97;3.83;;;16.50;99.90;;;;;;4995193;28;20370;-64
2022/08/22 02:26:02;;;;;;;6.82;3.97;;;16.50;99.90;;;;;;4995048;28;20556;-65
2022/08/22 02:28:47;;;;;;;7.78;4.10;;;16.50;99.90;;;;;;4994944;28;20046;-65
2022/08/22 02:31:27;;;;;;;6.53;4.00;;;16.50;99.90;;;;;;4994971;28;20054;-64
2022/08/22 02:33:57;;;;;;;7.13;3.55;;;16.40;99.90;;;;;;5073601;28;20048;-64
2022/08/22 02:36:29;;;;;;;6.40;4.05;;;16.40;99.90;;;;;;5076374;28;20036;-64
2022/08/22 02:39:12;;;;;;;4.75;3.35;;;16.40;99.90;;;;;;5076297;28;20032;-64
2022/08/22 02:41:56;;;;;;;8.88;3.95;;;16.30;99.90;;;;;;5076216;28;20036;-65
2022/08/22 02:44:30;;;;;;;7.70;4.22;;;16.30;99.90;;;;;;5076172;28;20063;-64
2022/08/22 02:47:05;;;;;;;5.15;3.28;;;16.30;99.90;;;;;;5076143;28;20437;-64
2022/08/22 02:50:06;;;;;;;6.35;3.38;;;16.30;99.90;;;;;;5075864;28;20045;-64
2022/08/22 02:52:45;;;;;;;6.13;3.92;;;16.30;99.90;;;;;;5075999;28;20491;-65
2022/08/22 02:55:28;;;;;;;8.93;3.65;;;16.20;99.90;;;;;;5075869;28;20047;-66
2022/08/22 02:58:06;;;;;;;7.32;3.67;;;16.20;99.90;;;;;;5075962;28;20430;-66
2022/08/22 03:01:06;;;;;;;5.53;3.75;;;16.00;99.90;;;;;;5075820;28;20062;-64
2022/08/22 03:03:37;;;;;;;6.03;3.77;;;16.10;99.90;;;;;;5075324;28;20096;-64
2022/08/22 03:06:40;;;;;;;5.88;3.38;;;16.10;99.90;;;;;;5075841;28;20033;-64
2022/08/22 03:09:06;;;;;;;7.72;3.65;;;16.10;99.90;;;;;;5075872;28;20494;-64
2022/08/22 03:11:37;;;;;;;4.05;3.65;;;16.00;99.90;;;;;;5075541;28;20033;-64
2022/08/22 03:14:02;;;;;;;4.65;3.60;;;15.90;99.90;;;;;;5075587;28;20040;-65
2022/08/22 03:16:57;;;;;;;7.47;4.40;;;15.80;99.90;;;;;;5075391;28;20502;-65
2022/08/22 03:20:05;;;;;;;11.85;4.40;;;15.90;99.90;;;;;;5053330;28;20051;-64
2022/08/22 03:22:36;;;;;;;4.03;3.58;;;15.80;99.90;;;;;;5053105;28;20040;-64
2022/08/22 03:25:29;;;;;;;7.18;4.30;;;15.70;99.90;;;;;;5053337;28;20084;-65
2022/08/22 03:28:04;;;;;;;5.28;3.95;;;15.90;99.90;;;;;;4955211;29;20054;-65
2022/08/22 03:30:37;;;;;;;7.43;4.10;;;15.80;99.90;;;;;;4955362;28;20673;-64
2022/08/22 03:33:17;;;;;;;5.78;4.22;;;15.80;99.90;;;;;;4954947;29;20044;-65
2022/08/22 03:35:45;;;;;;;8.75;4.85;;;15.60;99.90;;;;;;4954848;29;20122;-65
2022/08/22 03:38:17;;;;;;;5.57;4.25;;;15.60;99.90;;;;;;4955010;29;20054;-65
2022/08/22 03:41:11;;;;;;;6.10;4.13;;;15.60;99.90;;;;;;4955036;29;20104;-64
2022/08/22 03:43:49;;;;;;;8.30;4.38;;;15.70;99.90;;;;;;4897856;29;20088;-65
2022/08/22 03:46:36;;;;;;;8.05;4.57;;;15.70;99.90;;;;;;4897863;29;20049;-65
2022/08/22 03:49:30;;;;;;;6.32;4.30;;;15.80;99.90;;;;;;4897603;29;20091;-65
2022/08/22 03:52:23;;;;;;;6.15;4.22;;;15.80;99.90;;;;;;4897655;29;20052;-65
2022/08/22 03:54:54;;;;;;;6.57;4.07;;;15.80;99.90;;;;;;4897544;29;20045;-64
2022/08/22 03:57:44;;;;;;;6.30;4.10;;;15.70;99.90;;;;;;4932791;29;20050;-64
2022/08/22 04:00:37;;;;;;;9.25;4.22;;;15.70;99.90;;;;;;4935279;29;20039;-61
2022/08/22 04:03:34;;;;;;;6.35;3.90;;;15.60;99.90;;;;;;4935428;29;20043;-65
2022/08/22 04:06:40;;;;;;;7.95;4.88;;;15.60;99.90;;;;;;4991985;28;20059;-64
2022/08/22 04:09:33;;;;;;;6.20;4.55;;;15.60;99.90;;;;;;4992920;28;20474;-65
2022/08/22 04:12:20;;;;;;;4.43;3.38;;;15.60;99.90;;;;;;4993134;28;20046;-65
2022/08/22 04:14:58;;;;;;;5.57;3.20;;;15.60;99.90;;;;;;4993358;28;20065;-64
2022/08/22 04:17:32;;;;;;;6.97;3.55;;;15.60;99.90;;;;;;4993037;28;20042;-65
2022/08/22 04:20:37;;;;;;;6.18;3.78;;;15.50;99.90;;;;;;5007587;28;20075;-65
2022/08/22 04:23:30;;;;;;;6.05;3.08;;;15.60;99.90;;;;;;5074061;28;20060;-64
2022/08/22 04:26:02;;;;;;;5.75;3.13;;;15.50;99.90;;;;;;5074285;28;20033;-66
2022/08/22 04:28:38;;;;;;;3.83;3.08;;;15.40;99.90;;;;;;5074281;28;20068;-65
2022/08/22 04:31:10;;;;;;;7.28;3.20;;;15.40;99.90;;;;;;5074186;28;20044;-66
2022/08/22 04:33:54;;;;;;;6.65;2.90;;;15.40;99.90;;;;;;5074111;28;20063;-65
2022/08/22 04:37:02;;;;;;;6.28;2.88;;;15.40;99.90;;;;;;5074275;28;20032;-64
2022/08/22 04:39:39;;;;;;;6.57;3.13;;;15.40;99.90;;;;;;5051786;28;20036;-65
2022/08/22 04:42:21;;;;;;;4.90;2.97;;;15.40;99.90;;;;;;5051106;28;20045;-64
2022/08/22 04:45:17;;;;;;;7.25;3.00;;;15.30;99.90;;;;;;5035682;28;20119;-64
2022/08/22 04:47:46;;;;;;;6.82;3.17;;;15.40;99.90;;;;;;5048654;28;20081;-64
2022/08/22 04:50:27;;;;;;;7.95;3.55;;;15.30;99.90;;;;;;5051440;28;20059;-64
2022/08/22 04:53:26;;;;;;;4.90;3.03;;;15.50;99.90;;;;;;5051930;28;20041;-63
2022/08/22 04:56:23;;;;;;;9.60;3.55;;;15.50;99.90;;;;;;5051607;28;20521;-64
2022/08/22 04:59:07;;;;;;;7.13;3.17;;;15.50;99.90;;;;;;5052024;28;20380;-63
2022/08/22 05:01:46;;;;;;;5.53;3.03;;;15.50;99.90;;;;;;5051654;28;20080;-64
2022/08/22 05:04:22;;;;;;;6.65;3.15;;;15.60;99.90;;;;;;5051402;28;20041;-64
2022/08/22 05:07:07;;;;;;;8.02;4.13;;;15.60;99.90;;;;;;5051416;28;20041;-64
2022/08/22 05:09:38;;;;;;;5.07;3.30;;;15.60;99.90;;;;;;5034169;28;20060;-64
2022/08/22 05:12:10;;;;;;;6.45;3.50;;;15.50;99.90;;;;;;5051406;28;20111;-64
2022/08/22 05:14:48;;;;;;;6.10;3.10;;;15.70;99.90;;;;;;5073550;28;20099;-65
2022/08/22 05:17:20;;;;;;;5.82;3.22;;;15.70;99.90;;;;;;5073711;28;20094;-65
2022/08/22 05:19:50;;;;;;;4.97;2.70;;;15.60;99.90;;;;;;5073722;28;20045;-63
2022/08/22 05:22:20;;;;;;;6.07;3.28;;;15.60;99.90;;;;;;5073575;28;20041;-63
2022/08/22 05:24:50;;;;;;;5.90;3.33;;;15.50;99.90;;;;;;5073410;28;20083;-64
2022/08/22 05:27:27;;;;;;;10.52;3.95;;;15.70;99.90;;;;;;5073352;28;20040;-63
2022/08/22 05:30:01;;;;;;;7.65;4.03;;;15.60;99.90;;;;;;5073568;28;20042;-63
2022/08/22 05:32:44;;;;;;;5.55;3.72;;;15.70;99.90;;;;;;5073316;28;20116;-64
2022/08/22 05:35:10;;;;;;;7.60;3.70;;;15.80;99.90;;;;;;5073345;28;20041;-63
2022/08/22 05:37:50;;;;;;;7.00;3.85;;;15.80;99.90;;;;;;5073509;28;20044;-63
2022/08/22 05:40:27;;;;;;;6.38;3.95;;;15.80;99.90;;;;;;5073758;28;20040;-63
2022/08/22 05:42:55;;;;;;;4.15;2.70;;;16.00;99.90;;;;;;5073330;28;20032;-63
2022/08/22 05:45:22;;;;;;;7.30;3.88;;;15.90;99.90;;;;;;5073349;28;20040;-63
2022/08/22 05:48:10;;;;;;;8.68;4.00;;;16.00;99.90;;;;;;5073280;28;20474;-63
2022/08/22 05:50:48;;;;;;;6.38;4.05;;;16.10;99.90;;;;;;5073198;28;20060;-64
2022/08/22 05:53:40;;;;;;;7.75;4.00;;;16.10;99.90;;;;;;5071248;28;20044;-64
2022/08/22 05:56:22;;;;;;;8.90;4.15;;;16.20;99.90;;;;;;5076846;28;20043;-63
2022/08/22 05:59:21;;;;;;;4.85;3.78;;;16.20;99.90;;;;;;5077047;28;20059;-63
2022/08/22 06:01:58;;;;;;;8.45;4.50;;;16.30;99.90;;;;;;5076750;28;20045;-63
2022/08/22 06:04:42;;;;;;;15.98;5.10;;;16.30;99.90;;;;;;5076763;28;20040;-63
2022/08/22 06:07:57;;;;;;;12.77;5.78;;;16.40;99.90;;;;;;5075049;28;20044;-63
2022/08/22 06:10:28;;;;;;;11.43;4.60;;;16.40;99.90;;;;;;5054617;28;20129;-63
2022/08/22 06:13:09;;;;;;;9.57;4.22;;;16.50;99.90;;;;;;5054525;28;20045;-63
2022/08/22 06:15:54;;;;;;;12.48;5.03;;;16.70;99.90;;;;;;5054450;28;20502;-63
2022/08/22 06:18:24;;;;;;;19.27;4.97;;;16.90;99.90;;;;;;5054456;28;20131;-63
2022/08/22 06:20:53;;;;;;;11.57;5.53;;;17.00;99.90;;;;;;5054320;28;20108;-63
2022/08/22 06:23:27;;;;;;;9.80;5.05;;;17.10;99.90;;;;;;5037500;28;20266;-63
2022/08/22 06:25:57;;;;;;;8.43;5.47;;;17.20;99.90;;;;;;5054168;28;20064;-64
2022/08/22 06:28:36;;;;;;;11.38;5.38;;;17.30;99.90;;;;;;5054317;28;20036;-63
2022/08/22 06:31:03;;;;;;;;;;;17.30;99.90;;;;;;5054688;28;20631;-63
2022/08/22 06:33:35;;;;;;;17.13;5.40;;;17.40;99.90;;;;;;5054081;28;20295;-63
2022/08/22 06:36:29;;;;;;;12.38;5.22;;;17.50;99.90;;;;;;5053868;28;20123;-64
2022/08/22 06:39:17;;;;;;;14.60;5.65;;;17.60;99.90;;;;;;5054224;28;20431;-63
2022/08/22 06:42:01;;;;;;;13.40;5.47;;;17.80;99.90;;;;;;5054192;28;20044;-63
2022/08/22 06:44:33;;;;;;;12.00;4.88;;;17.70;99.90;;;;;;5065935;28;20499;-63
2022/08/22 06:47:02;;;;;;;13.02;5.18;;;17.80;99.90;;;;;;5076169;28;20115;-62
2022/08/22 06:49:31;;;;;;;11.38;5.03;;;18.00;99.90;;;;;;5076065;28;20051;-63
2022/08/22 06:52:00;;;;;;;10.70;4.43;;;18.00;99.90;;;;;;5076055;28;20044;-64
2022/08/22 06:54:29;;;;;;;15.48;4.63;;;18.10;99.90;;;;;;5075858;28;20037;-64
2022/08/22 06:56:55;;;;;;;;;;;18.10;99.90;;;;;;5076077;28;20125;-63
2022/08/22 06:59:28;;;;;;;10.30;3.72;;;18.10;99.90;;;;;;5075976;28;19973;-63
2022/08/22 07:02:28;;;;;;;14.20;4.25;;;18.20;99.90;;;;;;5075877;28;20047;-63
2022/08/22 07:04:54;;;;;;;12.55;3.72;;;18.20;99.90;;;;;;5053260;28;20048;-63
2022/08/22 07:07:25;;;;;;;17.80;4.22;;;18.30;99.90;;;;;;5052955;28;20048;-63
2022/08/22 07:09:54;;;;;;;14.48;3.80;;;18.40;99.90;;;;;;5053442;28;20360;-63
2022/08/22 07:12:28;;;;;;;10.05;3.60;;;18.40;99.90;;;;;;5053527;28;20365;-63
2022/08/22 07:14:59;;;;;;;9.52;3.63;;;18.40;99.90;;;;;;5053417;28;20053;-63
2022/08/22 07:17:31;;;;;;;14.02;4.10;;;18.50;99.90;;;;;;5053292;28;20040;-64
2022/08/22 07:20:17;;;;;;;8.05;3.30;;;18.50;99.90;;;;;;5053195;28;20049;-63
2022/08/22 07:22:53;;;;;;;14.43;3.65;;;18.60;99.90;;;;;;5053311;28;20518;-64
2022/08/22 07:25:19;;;;;;;13.68;3.67;;;18.60;99.90;;;;;;5053293;28;20040;-63
2022/08/22 07:28:18;;;;;;;13.98;2.97;;;18.70;99.90;;;;;;5053048;28;20064;-64
2022/08/22 07:30:54;;;;;;;12.65;3.08;;;18.70;99.90;;;;;;5053139;28;20052;-64
2022/08/22 07:33:34;;;;;;;11.63;3.25;;;18.80;99.90;;;;;;5053301;28;20052;-64
2022/08/22 07:36:26;;;;;;;12.38;3.50;;;18.80;99.90;;;;;;5053010;28;20041;-63
2022/08/22 07:39:10;;;;;;;16.90;2.72;;;18.80;99.90;;;;;;5052870;28;20063;-63
2022/08/22 07:42:01;;;;;;;12.52;3.13;;;18.90;99.90;;;;;;5074242;28;20056;-63
2022/08/22 07:44:34;;;;;;;12.40;3.10;;;18.90;99.90;;;;;;5074924;28;20044;-63
2022/08/22 07:47:15;;;;;;;9.98;3.35;;;19.00;99.90;;;;;;5074846;28;20112;-64
2022/08/22 07:49:53;;;;;;;12.10;2.67;;;19.00;99.90;;;;;;5074755;28;20098;-63
2022/08/22 07:52:20;;;;;;;10.18;2.85;;;19.10;99.90;;;;;;5074886;28;20122;-64
2022/08/22 07:54:56;;;;;;;11.15;2.75;;;19.10;99.90;;;;;;5074691;28;20040;-64
2022/08/22 07:57:36;;;;;;;11.77;3.03;;;19.20;99.90;;;;;;5074813;28;20115;-64
2022/08/22 08:00:09;;;;;;;13.57;2.85;;;19.30;99.90;;;;;;5073314;28;20433;-64
2022/08/22 08:02:38;;;;;;;16.23;3.75;;;19.30;99.90;;;;;;5073645;28;20041;-64
2022/08/22 08:05:04;;;;;;;;;;;19.50;99.90;;;;;;5075090;28;20044;-64
2022/08/22 08:07:31;;;;;;;12.45;2.53;;;19.50;99.90;;;;;;5074554;28;19970;-63
2022/08/22 08:10:04;;;;;;;8.90;2.88;;;19.60;99.90;;;;;;5074481;28;20120;-64
2022/08/22 08:12:44;;;;;;;15.30;3.30;;;19.60;99.90;;;;;;5074443;28;20064;-62
2022/08/22 08:15:15;;;;;;;10.05;3.15;;;19.70;99.90;;;;;;5073216;28;20045;-62
2022/08/22 08:17:43;;;;;;;9.88;3.72;;;19.70;99.90;;;;;;5073430;28;20076;-63
2022/08/22 08:20:12;;;;;;;11.20;3.67;;;19.80;99.90;;;;;;5074262;28;20169;-63
2022/08/22 08:22:41;;;;;;;13.85;3.60;;;19.80;99.90;;;;;;5074361;28;20383;-63
2022/08/22 08:25:11;;;;;;;9.20;2.45;;;19.80;99.90;;;;;;5074259;28;20052;-63
2022/08/22 08:30:35;;;;;;;12.30;3.13;;;19.80;99.90;;;;;;5074193;28;20044;-63
2022/08/22 08:33:03;;;;;;;14.02;4.53;;;19.90;99.90;;;;;;5074569;28;20041;-63
2022/08/22 08:35:34;;;;;;;9.82;3.35;;;20.00;99.90;;;;;;5072634;28;20044;-63
2022/08/22 08:38:00;;;;;;;12.05;3.22;;;20.00;99.90;;;;;;5074137;28;20395;-64
2022/08/22 08:40:31;;;;;;;10.68;3.55;;;20.10;99.90;;;;;;5072843;28;20037;-64
2022/08/22 08:45:44;;;;;;;7.43;3.03;;;20.10;99.90;;;;;;5074055;28;20380;-63
2022/08/22 08:48:54;;;;;;;12.48;3.72;;;20.10;99.90;;;;;;5073764;28;20040;-63
2022/08/22 08:51:22;;;;;;;11.75;3.60;;;20.20;99.90;;;;;;5051497;28;20064;-63
2022/08/22 08:54:05;;;;;;;13.15;2.70;;;20.20;99.90;;;;;;5051653;28;20570;-64
2022/08/22 08:56:47;;;;;;;12.95;3.05;;;20.20;99.90;;;;;;5051990;28;20049;-64
2022/08/22 08:59:22;;;;;;;12.40;2.75;;;20.30;99.90;;;;;;5051576;28;20576;-64
2022/08/22 09:02:28;;;;;;;18.40;3.35;;;20.30;99.90;;;;;;5051449;28;20041;-64
2022/08/22 09:05:28;;;;;;;13.60;3.13;;;20.40;99.90;;;;;;5034960;28;20064;-63
2022/08/22 09:08:01;;;;;;;12.27;3.40;;;20.60;99.90;;;;;;5051516;28;20040;-64
2022/08/22 09:10:39;;;;;;;11.63;3.53;;;20.90;99.90;;;;;;5051378;28;20179;-63
2022/08/22 09:13:34;;;;;;;8.88;2.63;;;21.30;99.90;;;;;;5051540;28;20111;-62
2022/08/22 09:16:19;;;;;;;10.82;3.33;;;21.50;99.90;;;;;;4972574;28;20059;-63
2022/08/22 09:18:55;;;;;;;12.43;3.22;;;21.90;99.90;;;;;;4972663;28;20054;-63
2022/08/22 09:21:52;;;;;;;11.82;3.10;;;22.40;99.90;;;;;;4972852;28;20047;-63
2022/08/22 09:24:55;;;;;;;9.15;2.75;;;22.50;99.90;;;;;;4975503;28;20097;-64
2022/08/22 09:27:31;;;;;;;11.00;3.30;;;22.70;99.90;;;;;;4991991;28;20058;-64
2022/08/22 09:30:06;;;;;;;8.73;2.60;;;22.70;99.90;;;;;;4995021;28;20108;-64
2022/08/22 09:32:37;;;;;;;16.75;3.45;;;22.80;99.90;;;;;;4996036;28;20053;-63
2022/08/22 09:35:29;;;;;;;12.15;2.70;;;23.00;99.90;;;;;;4995826;28;20181;-63
2022/08/22 09:38:01;;;;;;;8.57;2.70;;;23.00;99.90;;;;;;4995891;28;20054;-63
2022/08/22 09:40:39;;;;;;;12.48;2.72;;;23.30;99.90;;;;;;4995719;28;20057;-63
2022/08/22 09:43:16;;;;;;;11.15;2.95;;;23.30;99.90;;;;;;4995758;28;20080;-63
2022/08/22 09:46:03;;;;;;;12.45;3.22;;;23.30;99.90;;;;;;4995857;28;20440;-63
2022/08/22 09:48:46;;;;;;;12.60;2.50;;;23.30;99.90;;;;;;4999722;28;20604;-60
2022/08/22 09:51:14;;;;;;;9.20;2.92;;;24.60;99.90;;;;;;5014435;28;20131;-59
2022/08/22 09:53:55;;;;;;;9.23;2.10;;;26.50;99.90;;;;;;5054401;28;20523;-60
2022/08/22 09:56:36;;;;;;;16.38;2.85;;;27.80;99.90;;;;;;5054829;28;20056;-59
2022/08/22 09:59:27;;;;;;;7.32;1.90;;;28.80;99.90;;;;;;5054923;28;20037;-59
2022/08/22 10:02:04;;;;;;;8.13;2.38;;;29.90;99.90;;;;;;5054889;28;20041;-60
2022/08/22 10:04:38;;;;;;;7.32;2.85;;;31.00;99.60;;;;;;5070932;28;20052;-60
2022/08/22 10:07:42;;;;;;;12.45;2.63;;;31.80;98.40;;;;;;5076781;28;20474;-59
2022/08/22 10:10:24;;;;;;;8.77;2.15;;;31.80;96.70;;;;;;5054480;28;20053;-60
2022/08/22 10:13:32;;;;;;;5.13;2.42;;;32.30;96.70;;;;;;5054416;28;20518;-60
2022/08/22 10:16:18;;;;;;;9.20;2.35;;;33.10;96.40;;;;;;5054578;28;20510;-61
2022/08/22 10:19:08;;;;;;;7.30;2.33;;;33.50;94.90;;;;;;5054252;28;20041;-60
2022/08/22 10:21:41;;;;;;;10.50;3.35;;;33.80;94.50;;;;;;5037926;28;20068;-60
2022/08/22 10:24:46;;;;;;;9.52;2.92;;;33.60;94.30;;;;;;5054319;28;20240;-60
2022/08/22 10:27:28;;;;;;;9.02;2.60;;;32.70;93.80;;;;;;5050318;28;20491;-60
2022/08/22 10:30:03;;;;;;;6.45;2.35;;;32.60;94.90;;;;;;5054322;28;20380;-61
2022/08/22 10:33:02;;;;;;;9.25;2.40;;;32.60;93.90;;;;;;5054227;28;20044;-61
2022/08/22 10:35:37;;;;;;;10.45;2.63;;;32.80;94.40;;;;;;5054430;28;20033;-60
2022/08/22 10:38:06;;;;;;;5.57;2.15;;;33.30;95.00;;;;;;5054164;28;20041;-61
2022/08/22 10:40:40;;;;;;;8.60;3.22;;;33.70;94.40;;;;;;5036278;28;20045;-61
2022/08/22 10:43:13;;;;;;;6.07;2.55;;;33.20;92.90;;;;;;5054004;28;20068;-61
2022/08/22 10:45:46;;;;;;;11.82;2.03;;;33.90;93.20;;;;;;5054106;28;20099;-60
2022/08/22 10:48:21;;;;;;;7.97;1.60;;;34.80;93.20;;;;;;5076024;28;20040;-60
2022/08/22 10:50:51;;;;;;;8.52;2.42;;;35.00;93.00;;;;;;5075979;28;20052;-61
2022/08/22 10:53:42;;;;;;;7.72;2.45;;;35.60;92.10;;;;;;5076132;28;20044;-61
2022/08/22 10:56:50;;;;;;;10.48;2.75;;;35.90;91.90;;;;;;5075928;28;20048;-60
2022/08/22 10:59:40;;;;;;;6.13;2.33;;;35.60;90.60;;;;;;5075906;28;20036;-61
2022/08/22 11:02:19;;;;;;;10.30;2.30;;;35.60;90.80;;;;;;5075953;28;20037;-60
2022/08/22 11:04:57;;;;;;;7.88;2.20;;;35.80;91.30;;;;;;5075860;28;20051;-60
2022/08/22 11:07:43;;;;;;;6.32;2.20;;;35.30;90.60;;;;;;5075604;28;20051;-60
2022/08/22 11:10:23;;;;;;;11.07;2.45;;;35.60;90.50;;;;;;5075768;28;20052;-61
2022/08/22 11:13:05;;;;;;;11.35;2.70;;;35.20;90.70;;;;;;5075694;28;20082;-61
2022/08/22 11:16:08;;;;;;;9.85;2.40;;;35.10;90.50;;;;;;5075499;28;20044;-60
2022/08/22 11:18:51;;;;;;;5.88;2.08;;;34.50;90.10;;;;;;5075469;28;20043;-61
2022/08/22 11:21:39;;;;;;;7.03;2.25;;;35.20;90.70;;;;;;5074361;28;20129;-61
2022/08/22 11:24:17;;;;;;;7.45;2.50;;;35.40;89.50;;;;;;5075437;28;20111;-61
2022/08/22 11:26:57;;;;;;;7.97;2.53;;;34.60;90.40;;;;;;5074291;28;20041;-60
2022/08/22 11:29:22;;;;;;;6.18;2.22;;;35.60;90.60;;;;;;5075336;28;20037;-61
2022/08/22 11:32:00;;;;;;;7.60;2.20;;;35.70;90.50;;;;;;5075362;28;20047;-61
2022/08/22 11:34:44;;;;;;;9.05;2.30;;;35.90;89.60;;;;;;5075287;28;20098;-60
2022/08/22 11:37:42;;;;;;;8.15;2.08;;;36.20;88.60;;;;;;5075163;28;20064;-61
2022/08/22 11:40:25;;;;;;;8.77;2.10;;;36.60;89.40;;;;;;5075204;28;20055;-62
2022/08/22 11:43:24;;;;;;;7.13;2.35;;;37.00;89.20;;;;;;5075128;28;20033;-62
2022/08/22 11:45:52;;;;;;;;;;;37.00;88.60;;;;;;5075433;28;20040;-61
2022/08/22 11:48:46;;;;;;;7.05;1.98;;;35.50;89.70;;;;;;5074738;28;19916;-62
2022/08/22 11:51:39;;;;;;;6.57;2.38;;;36.60;89.50;;;;;;5052431;28;20064;-61
2022/08/22 11:54:34;;;;;;;8.13;2.13;;;36.80;87.50;;;;;;5052718;28;20520;-62
2022/08/22 11:57:13;;;;;;;5.80;2.03;;;36.80;86.80;;;;;;4973990;28;20520;-62
2022/08/22 12:00:10;;;;;;;7.18;2.30;;;36.70;88.10;;;;;;4974011;28;20506;-61
2022/08/22 12:02:58;;;;;;;6.78;2.15;;;36.90;86.50;;;;;;4973853;28;20065;-61
2022/08/22 12:05:38;;;;;;;5.75;2.10;;;37.60;88.30;;;;;;4973751;28;20390;-61
2022/08/22 12:08:45;;;;;;;7.15;2.03;;;37.20;87.00;;;;;;4973758;28;20471;-61
2022/08/22 12:11:14;;;;;;;9.07;2.22;;;37.30;87.30;;;;;;4973760;28;20077;-61
2022/08/22 12:13:59;;;;;;;8.77;1.95;;;37.30;87.80;;;;;;4957473;28;20355;-61
2022/08/22 12:16:47;;;;;;;12.82;2.28;;;37.20;87.60;;;;;;4973688;28;20059;-61
2022/08/22 12:19:23;;;;;;;6.10;2.57;;;36.80;85.80;;;;;;4973594;28;20042;-61
2022/08/22 12:22:02;;;;;;;4.70;1.98;;;36.40;86.20;;;;;;4973538;28;20050;-61
2022/08/22 12:25:00;;;;;;;7.63;2.38;;;35.90;86.50;;;;;;4973467;28;20057;-61
2022/08/22 12:27:44;;;;;;;6.03;2.10;;;35.60;87.80;;;;;;4976143;28;20058;-62
2022/08/22 12:30:34;;;;;;;7.32;2.38;;;35.20;88.10;;;;;;4992710;28;20106;-62
2022/08/22 12:33:20;;;;;;;6.53;1.75;;;34.20;86.20;;;;;;4998936;28;20046;-62
2022/08/22 12:36:05;;;;;;;5.03;1.90;;;34.60;88.00;;;;;;5072500;28;20178;-62
2022/08/22 12:38:31;;;;;;;6.28;1.90;;;34.20;87.30;;;;;;5073844;28;20037;-61
2022/08/22 12:41:30;;;;;;;7.45;2.15;;;33.90;89.70;;;;;;5074143;28;20040;-63
2022/08/22 12:44:01;;;;;;;8.90;2.57;;;33.70;88.40;;;;;;5074005;28;20079;-62
2022/08/22 12:46:45;;;;;;;5.45;2.22;;;33.90;89.70;;;;;;5073999;28;20282;-62
2022/08/22 12:49:23;;;;;;;8.82;1.80;;;33.70;88.90;;;;;;5074030;28;20041;-62
2022/08/22 12:52:07;;;;;;;6.78;1.80;;;33.50;90.10;;;;;;5073715;28;20482;-62
2022/08/22 12:54:51;;;;;;;5.70;2.00;;;33.90;89.50;;;;;;5073854;28;20044;-62
2022/08/22 12:57:29;;;;;;;9.50;2.28;;;34.40;89.80;;;;;;5073943;28;20045;-63
2022/08/22 13:00:07;;;;;;;7.73;2.33;;;34.40;89.00;;;;;;5073829;28;20112;-62
2022/08/22 13:02:38;;;;;;;7.10;2.15;;;34.30;87.20;;;;;;5073750;28;20040;-62
2022/08/22 13:05:12;;;;;;;6.30;2.33;;;34.00;88.70;;;;;;5073245;28;20044;-62
2022/08/22 13:07:41;;;;;;;6.05;1.90;;;34.20;89.20;;;;;;5074019;28;20075;-62
2022/08/22 13:10:34;;;;;;;6.32;2.15;;;34.30;88.50;;;;;;5073633;28;20463;-62
2022/08/22 13:13:01;;;;;;;6.35;1.88;;;34.80;86.70;;;;;;5073680;28;20068;-62
2022/08/22 13:15:43;;;;;;;6.35;1.95;;;35.00;88.90;;;;;;5073735;28;20133;-62
2022/08/22 13:18:24;;;;;;;7.32;1.90;;;35.10;85.80;;;;;;5073597;28;20036;-61
2022/08/22 13:20:52;;;;;;;8.27;2.03;;;34.40;86.50;;;;;;5073646;28;20032;-63
2022/08/22 13:23:32;;;;;;;5.68;1.88;;;34.60;87.30;;;;;;5073411;28;20497;-60
2022/08/22 13:26:04;;;;;;;5.15;1.73;;;33.90;86.60;;;;;;5073549;28;20055;-62
2022/08/22 13:28:36;;;;;;;4.82;1.92;;;34.50;87.60;;;;;;5073553;28;20079;-61
2022/08/22 13:31:03;;;;;;;15.60;1.83;;;33.90;86.50;;;;;;5073573;28;20036;-63
2022/08/22 13:33:37;;;;;;;6.55;1.85;;;34.40;87.10;;;;;;5073414;28;20044;-61
2022/08/22 13:36:12;;;;;;;9.15;1.92;;;34.30;87.20;;;;;;5073453;28;20043;-60
2022/08/22 13:38:48;;;;;;;4.30;1.65;;;34.20;87.40;;;;;;5073433;28;20044;-61
2022/08/22 13:41:46;;;;;;;6.13;1.77;;;34.10;86.80;;;;;;5073507;28;20047;-62
2022/08/22 13:44:20;;;;;;;5.95;2.00;;;34.00;87.20;;;;;;5073271;28;20043;-61
2022/08/22 13:46:48;;;;;;;6.88;1.80;;;33.80;87.20;;;;;;5073412;28;20387;-61
2022/08/22 13:49:18;;;;;;;5.55;1.90;;;33.20;87.00;;;;;;5073428;28;20427;-61
2022/08/22 13:51:52;;;;;;;4.68;1.70;;;33.30;86.50;;;;;;5073018;28;20052;-61
2022/08/22 13:54:43;;;;;;;4.40;1.75;;;33.20;87.40;;;;;;5073242;28;20045;-61
2022/08/22 13:57:27;;;;;;;7.60;1.98;;;33.30;88.10;;;;;;5072188;28;20116;-61
2022/08/22 14:00:06;;;;;;;3.70;1.48;;;33.10;88.40;;;;;;5072727;28;20037;-61
2022/08/22 14:02:51;;;;;;;5.82;1.67;;;32.40;88.00;;;;;;5072077;28;20072;-61
2022/08/22 14:05:24;;;;;;;6.75;1.90;;;32.30;88.00;;;;;;5073217;28;20036;-61